Time;durP1;ratioP1;P1;durP2;ratioP2;P2;SDS_P1;SDS_P2;PMS_P1;PMS_P2;Temp;Humidity;BMP_temperature;BMP_pressure;BME280_temperature;BME280_humidity;BME280_pressure;Samples;Min_cycle;Max_cycle;Signal;HPM_P1;HPM_P2
2022/10/26 00:04:05;;;;;;;16.75;9.28;;;;;;;17.93;85.32;99440.91;4305926;82;28543;-86
2022/10/26 00:10:09;;;;;;;17.02;9.85;;;;;;;17.76;86.20;99446.08;4293223;82;28510;-85
2022/10/26 00:16:16;;;;;;;20.08;9.58;;;;;;;17.83;85.83;99448.53;4286451;82;28502;-89
2022/10/26 00:22:18;;;;;;;16.73;9.38;;;;;;;17.62;86.85;99448.48;4272011;82;28477;-86
2022/10/26 00:28:19;;;;;;;13.80;9.48;;;;;;;17.51;87.62;99454.98;4282813;82;28468;-86
2022/10/26 00:34:20;;;;;;;17.12;9.15;;;;;;;17.40;87.72;99459.02;4313501;82;28527;-88
2022/10/26 00:40:26;;;;;;;17.02;8.98;;;;;;;17.46;87.49;99460.38;4292097;82;28479;-87
2022/10/26 00:46:37;;;;;;;14.98;9.13;;;;;;;17.39;87.72;99461.47;4289419;82;28497;-87
2022/10/26 00:52:39;;;;;;;14.55;9.30;;;;;;;17.74;86.58;99464.53;4303968;82;28515;-87
2022/10/26 00:58:41;;;;;;;15.00;9.23;;;;;;;17.82;86.27;99461.86;4283058;82;28514;-87
2022/10/26 01:04:45;;;;;;;16.77;9.18;;;;;;;17.51;87.44;99470.73;4281165;82;28550;-87
2022/10/26 01:10:47;;;;;;;17.07;9.78;;;;;;;17.86;86.97;99471.62;4278639;82;28585;-87
2022/10/26 01:17:15;;;;;;;15.72;9.53;;;;;;;17.87;86.67;99473.30;4290507;82;28492;-87
2022/10/26 01:23:34;;;;;;;16.35;9.53;;;;;;;17.46;89.01;99466.66;4312119;81;28465;-88
2022/10/26 01:29:49;;;;;;;16.02;8.68;;;;;;;17.42;89.38;99468.25;4322637;82;28514;-88
2022/10/26 01:36:02;;;;;;;17.17;8.33;;;;;;;17.13;90.46;99459.19;4294817;82;28518;-86
2022/10/26 01:42:05;;;;;;;14.23;8.35;;;;;;;16.95;91.62;99458.52;4299065;81;28495;-86
2022/10/26 01:48:10;;;;;;;16.60;7.78;;;;;;;16.75;92.42;99460.55;4290480;82;28570;-86
2022/10/26 01:54:12;;;;;;;14.95;8.33;;;;;;;16.68;92.02;99453.99;4297793;82;28485;-85
2022/10/26 02:00:14;;;;;;;15.48;8.00;;;;;;;16.49;92.16;99463.10;4245928;83;28519;-89
2022/10/26 02:06:46;;;;;;;13.45;8.20;;;;;;;16.56;90.76;99465.59;4170381;84;28504;-86
2022/10/26 02:13:11;;;;;;;15.32;7.78;;;;;;;16.12;93.36;99464.70;4249907;83;28450;-86
2022/10/26 02:19:45;;;;;;;16.57;8.18;;;;;;;16.08;91.76;99460.05;4120239;84;28478;-86
2022/10/26 02:25:51;;;;;;;9.75;7.15;;;;;;;15.93;91.71;99466.14;4207660;83;28460;-86
2022/10/26 02:31:53;;;;;;;11.97;7.60;;;;;;;15.96;90.68;99462.39;4219538;83;28503;-86
2022/10/26 02:37:58;;;;;;;13.18;7.60;;;;;;;15.97;90.08;99461.30;4222884;83;28474;-86
2022/10/26 02:44:23;;;;;;;13.75;7.85;;;;;;;15.40;92.40;99467.43;4226567;83;28508;-86
2022/10/26 02:50:39;;;;;;;12.60;8.08;;;;;;;15.75;91.49;99456.73;4271468;83;28523;-86
2022/10/26 02:57:03;;;;;;;11.70;7.37;;;;;;;15.68;92.43;99458.81;4270453;83;28485;-87
2022/10/26 03:03:05;;;;;;;15.38;7.95;;;;;;;15.75;91.89;99458.61;4240909;82;28428;-88
2022/10/26 03:09:06;;;;;;;13.75;8.35;;;;;;;15.74;91.47;99475.42;4233050;83;28481;-86
2022/10/26 03:15:08;;;;;;;13.03;7.87;;;;;;;15.47;92.35;99490.30;4224491;83;28484;-86
2022/10/26 03:21:10;;;;;;;19.23;9.28;;;;;;;15.20;95.81;99491.03;4256281;82;28473;-87
2022/10/26 03:27:11;;;;;;;15.10;8.90;;;;;;;15.46;93.06;99498.11;4321071;82;28541;-87
2022/10/26 03:33:13;;;;;;;17.02;8.55;;;;;;;15.51;93.53;99492.77;4323178;82;28461;-88
2022/10/26 03:39:14;;;;;;;15.58;9.03;;;;;;;15.65;92.67;99496.44;4265623;82;28491;-87
2022/10/26 03:45:16;;;;;;;18.65;8.50;;;;;;;14.95;95.39;99509.92;4294064;82;28504;-88
2022/10/26 03:51:17;;;;;;;11.75;7.78;;;;;;;15.52;92.14;99501.19;4285367;82;28475;-86
2022/10/26 03:57:19;;;;;;;14.03;8.98;;;;;;;15.50;91.78;99498.44;4315648;82;28475;-88
2022/10/26 04:03:22;;;;;;;14.70;8.48;;;;;;;15.50;91.45;99491.66;4301841;82;28459;-89
2022/10/26 04:09:23;;;;;;;15.00;8.78;;;;;;;15.40;90.81;99497.78;4307611;82;28501;-90
2022/10/26 04:15:25;;;;;;;12.40;8.10;;;;;;;15.43;89.35;99498.63;4319537;82;28460;-88
2022/10/26 04:21:26;;;;;;;13.93;8.75;;;;;;;15.22;87.62;99501.08;4291661;82;28574;-86
2022/10/26 04:27:30;;;;;;;13.58;7.95;;;;;;;15.00;88.71;99499.16;4262678;83;28434;-86
2022/10/26 04:33:32;;;;;;;13.05;7.95;;;;;;;15.04;87.99;99498.93;4290539;83;28470;-86
2022/10/26 04:39:33;;;;;;;10.82;7.17;;;;;;;14.69;89.18;99497.87;4288428;83;28490;-86
2022/10/26 04:45:35;;;;;;;11.55;7.08;;;;;;;14.95;88.46;99506.39;4297878;82;28523;-87
2022/10/26 04:51:36;;;;;;;14.15;7.87;;;;;;;14.72;87.07;99501.42;4248585;83;28508;-85
2022/10/26 04:57:37;;;;;;;14.68;7.40;;;;;;;14.53;88.78;99503.02;4267001;83;28493;-86
2022/10/26 05:03:41;;;;;;;11.95;7.42;;;;;;;14.57;87.91;99501.45;4272160;83;28480;-91
2022/10/26 05:09:43;;;;;;;14.18;8.63;;;;;;;14.45;87.71;99501.55;4242988;83;28487;-89
2022/10/26 05:15:44;;;;;;;12.10;7.17;;;;;;;14.80;87.16;99506.98;4244265;81;28502;-83
2022/10/26 05:21:46;;;;;;;13.53;7.83;;;;;;;14.49;87.08;99510.00;4195170;82;28536;-84
2022/10/26 05:27:47;;;;;;;13.15;7.95;;;;;;;14.45;85.84;99514.25;4194569;83;28466;-83
2022/10/26 05:33:50;;;;;;;11.22;6.83;;;;;;;14.18;87.45;99527.06;4205387;83;28523;-84
2022/10/26 05:39:51;;;;;;;13.08;7.45;;;;;;;14.50;83.61;99529.23;4208018;83;28469;-84
2022/10/26 05:45:53;;;;;;;13.85;8.10;;;;;;;14.13;85.49;99541.30;4303124;81;28566;-86
2022/10/26 05:51:55;;;;;;;14.45;9.35;;;;;;;14.25;89.01;99540.42;4285901;81;28503;-85
2022/10/26 05:57:57;;;;;;;16.07;8.88;;;;;;;14.44;90.17;99547.77;4283078;82;28510;-85
2022/10/26 06:04:10;;;;;;;12.60;6.67;;;;;;;14.30;90.92;99549.97;4277540;82;28526;-85
2022/10/26 06:10:12;;;;;;;14.75;6.67;;;;;;;14.03;92.78;99560.03;4291438;81;28496;-85
2022/10/26 06:16:36;;;;;;;12.18;6.58;;;;;;;14.66;89.33;99560.06;4327580;81;28506;-85
2022/10/26 06:23:06;;;;;;;12.37;6.87;;;;;;;14.84;87.31;99567.14;4296262;82;28481;-88
2022/10/26 06:29:19;;;;;;;14.47;6.67;;;;;;;14.52;88.13;99564.13;4284849;82;28548;-84
2022/10/26 06:35:44;;;;;;;14.58;7.42;;;;;;;14.89;87.88;99568.59;4281142;82;28469;-84
2022/10/26 06:41:46;;;;;;;11.12;6.62;;;;;;;15.26;86.17;99571.30;4302165;82;28443;-84
2022/10/26 06:48:01;;;;;;;14.98;7.35;;;;;;;15.37;85.30;99580.92;4287508;82;28474;-84
2022/10/26 06:54:32;;;;;;;11.05;6.95;;;;;;;15.42;88.02;99588.59;4316281;82;28467;-85
2022/10/26 07:00:33;;;;;;;11.90;6.78;;;;;;;15.54;89.50;99580.88;4302923;82;28484;-85
2022/10/26 07:06:35;;;;;;;14.18;6.85;;;;;;;15.64;90.38;99590.50;4300856;82;28481;-84
2022/10/26 07:12:40;;;;;;;13.78;7.35;;;;;;;16.04;89.23;99596.70;4280316;81;28459;-86
2022/10/26 07:18:45;;;;;;;12.23;6.95;;;;;;;16.24;89.13;99598.80;4264229;81;28497;-84
2022/10/26 07:24:49;;;;;;;13.53;6.80;;;;;;;16.42;89.54;99603.08;4293222;81;28499;-83
2022/10/26 07:30:50;;;;;;;12.30;6.62;;;;;;;16.76;87.87;99603.37;4303642;82;28520;-84
2022/10/26 07:36:52;;;;;;;11.75;6.67;;;;;;;16.91;89.46;99603.23;4303657;81;28511;-80
2022/10/26 07:42:59;;;;;;;15.00;8.30;;;;;;;16.52;92.80;99604.26;4302127;82;28582;-80
2022/10/26 07:49:01;;;;;;;14.98;7.78;;;;;;;17.13;91.65;99608.05;4301385;81;28595;-79
2022/10/26 07:55:04;;;;;;;14.47;8.18;;;;;;;17.54;90.22;99610.75;4305922;82;28504;-79
2022/10/26 08:01:14;;;;;;;14.63;7.72;;;;;;;17.73;91.13;99604.31;4288006;81;28560;-79
2022/10/26 08:07:15;;;;;;;17.70;7.75;;;;;;;17.91;92.55;99605.77;4274041;81;28487;-79
2022/10/26 08:13:18;;;;;;;11.45;5.83;;;;;;;18.25;91.75;99603.16;4286098;82;28538;-79
2022/10/26 08:19:20;;;;;;;9.70;4.83;;;;;;;18.49;89.58;99598.60;4272678;82;28554;-79
2022/10/26 08:25:21;;;;;;;9.48;4.83;;;;;;;18.71;86.08;99600.25;4206347;82;28476;-80
2022/10/26 08:31:23;;;;;;;10.45;4.85;;;;;;;18.73;85.53;99594.78;4162625;83;28464;-79
2022/10/26 08:37:26;;;;;;;6.90;3.75;;;;;;;18.93;82.97;99592.62;4156438;85;28507;-79
2022/10/26 08:43:33;;;;;;;7.28;3.92;;;;;;;19.05;82.88;99587.46;4234664;82;28496;-79
2022/10/26 08:49:52;;;;;;;7.50;3.40;;;;;;;19.07;83.21;99595.64;4230201;82;28525;-83
2022/10/26 08:56:14;;;;;;;9.98;3.80;;;;;;;19.42;80.96;99593.67;4183785;82;28474;-82
2022/10/26 09:02:17;;;;;;;9.90;4.55;;;;;;;19.51;78.17;99595.53;4195265;82;28431;-83
2022/10/26 09:08:44;;;;;;;9.20;4.55;;;;;;;19.64;76.85;99597.43;4252824;82;28509;-82
2022/10/26 09:15:20;;;;;;;7.20;4.25;;;;;;;19.70;76.73;99593.57;4230451;82;28528;-83
2022/10/26 09:21:36;;;;;;;7.92;4.33;;;;;;;19.31;75.27;99591.49;4215397;82;28475;-83
2022/10/26 09:27:42;;;;;;;7.10;3.60;;;;;;;19.94;73.93;99601.70;4199245;83;28518;-83
2022/10/26 09:33:43;;;;;;;9.03;3.35;;;;;;;20.09;73.25;99596.15;4191325;83;29011;-82
2022/10/26 09:40:01;;;;;;;5.30;2.47;;;;;;;20.15;72.87;99592.31;4208175;84;28471;-82
2022/10/26 09:45:57;;;;;;;7.03;2.67;;;;;;;20.21;70.80;99602.65;4206590;84;28572;-82
2022/10/26 09:51:58;;;;;;;6.83;3.45;;;;;;;20.23;71.50;99607.27;4191213;84;28445;-83
2022/10/26 09:58:05;;;;;;;7.00;4.15;;;;;;;20.04;72.34;99604.37;4225798;83;28454;-82
2022/10/26 10:04:37;;;;;;;8.40;3.75;;;;;;;20.45;70.88;99600.05;4218720;84;28483;-81
2022/10/26 10:10:22;;;;;;;6.17;2.98;;;;;;;20.44;69.38;99598.95;4180279;84;28532;-81
2022/10/26 10:16:24;;;;;;;8.05;2.80;;;;;;;20.06;70.93;99603.55;4227007;82;28542;-80
2022/10/26 10:22:31;;;;;;;7.10;2.80;;;;;;;20.48;69.85;99606.87;4231298;82;28487;-81
2022/10/26 10:28:34;;;;;;;4.65;2.30;;;;;;;20.70;68.80;99598.22;4285502;82;28470;-81
2022/10/26 10:34:35;;;;;;;4.75;1.90;;;;;;;20.65;69.39;99596.08;4283374;82;28487;-81
2022/10/26 10:40:38;;;;;;;2.65;1.45;;;;;;;20.97;67.30;99592.02;4282816;82;28500;-80
2022/10/26 10:46:46;;;;;;;4.90;2.10;;;;;;;21.17;65.50;99585.56;4280826;81;28561;-81
2022/10/26 10:52:49;;;;;;;3.92;1.80;;;;;;;21.22;66.41;99586.06;4293664;82;28504;-80
2022/10/26 10:59:28;;;;;;;4.97;1.52;;;;;;;21.22;65.07;99590.16;4267398;82;28476;-81
2022/10/26 11:05:41;;;;;;;2.98;1.20;;;;;;;21.34;65.50;99578.27;4266033;82;28525;-81
2022/10/26 11:11:59;;;;;;;3.22;1.30;;;;;;;21.44;64.14;99569.95;4272501;81;28519;-81
2022/10/26 11:18:21;;;;;;;3.35;1.60;;;;;;;21.30;62.63;99585.44;4210107;83;28438;-82
2022/10/26 11:24:44;;;;;;;5.53;1.35;;;;;;;21.25;64.13;99578.64;4167573;82;28509;-81
2022/10/26 11:31:00;;;;;;;2.83;1.55;;;;;;;21.18;62.26;99592.09;4126083;84;28474;-83
2022/10/26 11:37:18;;;;;;;3.65;1.22;;;;;;;21.77;62.53;99578.91;4151186;84;28494;-81
2022/10/26 11:43:31;;;;;;;3.17;1.30;;;;;;;21.43;59.62;99582.55;4141354;84;28555;-82
2022/10/26 11:50:17;;;;;;;8.55;2.00;;;;;;;21.58;60.34;99590.59;4132022;84;28499;-83
2022/10/26 11:56:22;;;;;;;;;;;;;;;21.86;60.57;99581.23;4148549;84;28545;-82
2022/10/26 12:02:25;;;;;;;4.97;1.90;;;;;;;21.84;58.60;99582.66;4129792;84;20242;-83
2022/10/26 12:08:43;;;;;;;4.37;1.80;;;;;;;22.01;59.29;99582.95;4133794;84;28514;-83
2022/10/26 12:14:56;;;;;;;4.55;1.70;;;;;;;21.85;57.01;99591.13;4133034;84;28497;-83
2022/10/26 12:21:04;;;;;;;3.83;1.30;;;;;;;21.79;58.73;99593.66;4133108;84;28594;-85
2022/10/26 12:27:05;;;;;;;3.95;1.87;;;;;;;22.19;58.40;99590.12;4209825;84;28469;-83
2022/10/26 12:33:29;;;;;;;3.77;1.57;;;;;;;22.27;58.22;99589.46;4172912;83;28523;-83
2022/10/26 12:39:33;;;;;;;3.37;1.37;;;;;;;22.19;58.33;99579.16;4166555;83;28534;-84
2022/10/26 12:45:35;;;;;;;3.58;0.80;;;;;;;22.40;57.77;99577.50;4179630;83;28468;-82
2022/10/26 12:51:41;;;;;;;1.07;0.75;;;;;;;22.14;55.88;99585.53;4159169;83;28484;-83
2022/10/26 12:58:41;;;;;;;2.83;0.80;;;;;;;21.84;54.36;99588.13;4183176;83;28969;-82
2022/10/26 13:39:40;;;;;;;3.60;1.42;;;;;;;22.53;53.72;99580.88;4054598;86;28534;-82
2022/10/26 13:45:56;;;;;;;2.55;1.30;;;;;;;22.58;53.86;99579.98;4092313;83;28503;-82
2022/10/26 13:52:02;;;;;;;2.83;1.32;;;;;;;22.45;54.24;99577.43;4205872;83;28495;-82
2022/10/26 13:58:15;;;;;;;2.47;1.20;;;;;;;22.46;54.82;99579.05;4186526;83;28516;-83
2022/10/26 14:04:31;;;;;;;3.05;1.72;;;;;;;22.36;55.08;99581.95;4190111;83;28569;-82
2022/10/26 14:10:43;;;;;;;3.83;1.50;;;;;;;22.21;55.33;99579.67;4194149;83;28491;-80
2022/10/26 14:16:51;;;;;;;5.20;1.57;;;;;;;21.97;54.50;99588.77;4176428;83;28557;-80
2022/10/26 14:22:56;;;;;;;4.70;1.60;;;;;;;22.16;54.76;99585.24;4324436;80;28531;-80
2022/10/26 14:29:00;;;;;;;3.08;1.57;;;;;;;22.13;55.16;99585.84;4325364;81;28485;-81
2022/10/26 14:35:01;;;;;;;4.28;1.62;;;;;;;22.06;55.29;99588.92;4326975;81;28487;-80
2022/10/26 14:41:05;;;;;;;4.62;2.40;;;;;;;22.06;55.55;99589.48;4323294;81;28504;-79
2022/10/26 14:47:31;;;;;;;4.00;1.50;;;;;;;22.05;55.67;99590.03;4306011;81;28527;-80
2022/10/26 14:53:41;;;;;;;4.95;1.52;;;;;;;21.89;56.03;99592.16;4302916;81;28504;-78
2022/10/26 14:59:45;;;;;;;6.33;1.90;;;;;;;21.67;56.35;99596.83;4272568;82;28482;-78
2022/10/26 15:05:50;;;;;;;4.35;1.95;;;;;;;21.56;56.20;99598.82;4312009;81;28547;-81
2022/10/26 15:11:53;;;;;;;6.17;1.62;;;;;;;21.41;58.02;99604.73;4271923;81;28471;-81
2022/10/26 15:17:56;;;;;;;3.72;1.40;;;;;;;21.16;58.87;99614.81;4312211;82;28499;-80
2022/10/26 15:24:00;;;;;;;4.12;1.40;;;;;;;20.93;59.96;99616.40;4307341;82;28542;-81
2022/10/26 15:30:26;;;;;;;4.12;1.60;;;;;;;20.56;60.86;99623.99;4305769;82;28551;-81
2022/10/26 15:36:35;;;;;;;6.20;1.70;;;;;;;20.32;61.10;99629.36;4286688;82;28474;-81
2022/10/26 15:42:42;;;;;;;4.58;1.50;;;;;;;19.86;62.11;99639.91;4309855;82;28489;-81
2022/10/26 15:48:48;;;;;;;3.62;1.98;;;;;;;19.79;62.84;99641.01;4300258;82;28539;-82
2022/10/26 15:54:50;;;;;;;6.40;1.87;;;;;;;19.66;63.28;99647.05;4293590;82;28477;-80
2022/10/26 16:00:51;;;;;;;6.42;2.02;;;;;;;19.44;64.22;99655.02;4303063;82;28467;-80
2022/10/26 16:06:57;;;;;;;5.33;2.40;;;;;;;19.19;64.33;99653.94;4312180;81;28583;-80
2022/10/26 16:12:58;;;;;;;5.75;2.02;;;;;;;19.10;64.83;99658.30;4317331;81;28485;-80
2022/10/26 16:18:59;;;;;;;4.00;1.70;;;;;;;18.95;65.24;99658.55;4313269;81;28469;-79
2022/10/26 16:25:06;;;;;;;5.25;2.10;;;;;;;18.72;65.66;99665.89;4274140;82;28505;-79
2022/10/26 16:31:12;;;;;;;6.03;1.75;;;;;;;18.46;66.59;99661.73;4289960;82;28476;-79
2022/10/26 16:37:15;;;;;;;7.70;2.22;;;;;;;18.43;66.81;99665.00;4200959;83;28525;-79
2022/10/26 16:43:16;;;;;;;4.97;2.45;;;;;;;18.24;67.50;99664.95;4308744;81;28594;-83
2022/10/26 16:49:18;;;;;;;6.83;2.50;;;;;;;17.84;67.83;99673.98;4260753;82;28480;-85
2022/10/26 16:55:23;;;;;;;5.70;2.27;;;;;;;17.82;68.79;99672.63;4197080;84;28946;-85
2022/10/26 17:01:24;;;;;;;5.67;2.27;;;;;;;17.82;68.64;99678.07;4242810;83;28464;-86
2022/10/26 17:07:26;;;;;;;9.23;2.40;;;;;;;17.74;68.71;99680.72;4266205;83;28485;-85
2022/10/26 17:13:27;;;;;;;5.08;2.45;;;;;;;17.63;69.23;99693.98;4293887;83;28476;-85
2022/10/26 17:19:29;;;;;;;5.55;2.77;;;;;;;17.52;69.98;99697.19;4280985;83;28475;-86
2022/10/26 17:25:37;;;;;;;9.20;2.62;;;;;;;17.44;70.31;99704.46;4230324;82;28479;-85
2022/10/26 17:31:39;;;;;;;9.08;3.35;;;;;;;17.38;71.01;99710.40;4196572;85;28464;-85
2022/10/26 17:37:40;;;;;;;30.32;16.77;;;;;;;17.10;72.27;99707.73;4212767;84;28493;-86
2022/10/26 17:43:44;;;;;;;8.53;4.17;;;;;;;17.01;72.64;99721.50;4218863;84;28462;-85
2022/10/26 17:49:46;;;;;;;8.05;3.50;;;;;;;16.95;72.77;99741.50;4221208;83;28434;-85
2022/10/26 17:55:49;;;;;;;6.78;3.05;;;;;;;17.04;73.16;99740.55;4242145;83;28510;-85
2022/10/26 18:01:51;;;;;;;7.75;3.02;;;;;;;16.88;73.39;99744.98;4227468;82;28508;-85
2022/10/26 18:07:54;;;;;;;12.68;3.92;;;;;;;16.78;74.04;99749.75;4253019;82;28506;-86
2022/10/26 18:13:58;;;;;;;10.23;4.00;;;;;;;16.73;74.34;99755.41;4246394;83;28461;-86
2022/10/26 18:19:59;;;;;;;7.72;3.55;;;;;;;16.66;75.16;99756.66;4234445;83;28523;-87
2022/10/26 18:26:14;;;;;;;9.40;4.28;;;;;;;16.58;75.81;99756.58;4223313;82;28466;-87
2022/10/26 18:32:16;;;;;;;9.45;4.12;;;;;;;16.76;75.51;99757.33;4162910;84;28497;-86
2022/10/26 18:38:18;;;;;;;16.52;6.12;;;;;;;16.90;74.81;99763.19;4203301;84;28559;-87
2022/10/26 18:44:27;;;;;;;17.23;7.22;;;;;;;17.14;74.78;99771.33;4178700;84;28462;-86
2022/10/26 18:50:29;;;;;;;17.40;7.05;;;;;;;17.37;74.44;99776.71;4143580;83;28551;-87
2022/10/26 18:56:31;;;;;;;15.55;6.67;;;;;;;17.26;75.07;99782.05;4172360;83;28475;-88
2022/10/26 19:02:35;;;;;;;17.57;6.50;;;;;;;17.15;75.30;99789.83;4173449;83;28525;-83
2022/10/26 19:08:37;;;;;;;17.67;7.75;;;;;;;17.27;74.21;99797.80;4158697;83;28939;-82
2022/10/26 19:14:39;;;;;;;18.40;8.35;;;;;;;17.00;75.46;99804.07;4148867;83;28494;-81
2022/10/26 19:20:40;;;;;;;19.80;8.38;;;;;;;17.11;74.40;99807.70;4174379;83;28496;-82
2022/10/26 19:26:43;;;;;;;20.80;8.85;;;;;;;17.00;74.81;99813.02;4181122;83;28562;-85
2022/10/26 19:32:46;;;;;;;19.27;9.75;;;;;;;16.85;75.80;99821.78;4067008;84;28573;-83
2022/10/26 19:38:48;;;;;;;21.97;10.20;;;;;;;16.68;76.40;99824.57;4102551;84;28478;-84
2022/10/26 19:44:49;;;;;;;16.17;9.50;;;;;;;16.49;77.79;99828.66;4082184;85;28569;-84
2022/10/26 19:50:55;;;;;;;21.85;9.90;;;;;;;16.31;78.21;99840.11;4109076;84;28561;-81
2022/10/26 19:56:58;;;;;;;19.73;9.80;;;;;;;16.09;79.36;99844.95;4110408;84;28499;-83
2022/10/26 20:03:27;;;;;;;18.55;9.20;;;;;;;16.14;78.83;99845.02;4121150;84;28546;-92
2022/10/26 20:09:17;;;;;;;17.07;8.88;;;;;;;15.97;79.34;99848.27;4145790;84;28465;-84
2022/10/26 20:15:22;;;;;;;20.50;9.43;;;;;;;15.77;79.38;99856.32;4114249;86;28488;-88
2022/10/26 20:21:25;;;;;;;20.08;9.38;;;;;;;15.88;79.62;99862.23;4096504;84;28555;-82
2022/10/26 20:27:31;;;;;;;15.75;9.25;;;;;;;15.61;80.54;99872.34;4171052;84;28556;-90
2022/10/26 20:33:32;;;;;;;17.35;9.53;;;;;;;15.45;80.91;99870.41;4176990;84;28437;-88
2022/10/26 20:39:42;;;;;;;23.38;9.80;;;;;;;15.51;81.53;99876.22;4192920;84;28457;-93
2022/10/26 20:45:49;;;;;;;22.13;10.20;;;;;;;15.38;81.54;99888.17;4203848;84;28469;-88
2022/10/26 20:52:07;;;;;;;22.45;10.43;;;;;;;15.28;81.67;99890.69;4223681;84;28913;-87
2022/10/26 20:58:25;;;;;;;21.33;9.65;;;;;;;15.01;81.34;99889.91;4190210;84;28478;-88
2022/10/26 21:04:27;;;;;;;21.60;10.48;;;;;;;14.74;83.37;99891.25;4201887;84;28500;-88
2022/10/26 21:10:30;;;;;;;22.62;10.58;;;;;;;14.84;83.27;99901.98;4206275;84;28449;-89
2022/10/26 21:16:35;;;;;;;;;;;;;;;14.68;83.88;99900.28;4167558;84;28482;-90
2022/10/26 21:22:48;;;;;;;21.80;10.70;;;;;;;14.66;84.10;99903.77;4174070;84;20217;-91
2022/10/26 21:28:51;;;;;;;19.45;10.25;;;;;;;14.46;85.19;99903.59;4111480;85;28473;-90
2022/10/26 21:34:54;;;;;;;16.50;9.55;;;;;;;14.53;83.68;99904.82;4145945;85;28442;-91
2022/10/26 21:41:17;;;;;;;20.60;10.68;;;;;;;14.30;82.60;99909.17;4109658;86;28477;-91
2022/10/26 21:47:18;;;;;;;22.80;11.50;;;;;;;14.25;85.88;99913.09;4190164;85;28906;-91
2022/10/26 21:53:21;;;;;;;19.62;10.80;;;;;;;14.32;85.45;99913.02;4137513;85;28506;-89
2022/10/26 21:59:24;;;;;;;23.20;11.93;;;;;;;14.33;85.59;99918.71;4159957;85;28501;-90
2022/10/26 22:05:26;;;;;;;24.07;10.50;;;;;;;14.40;85.19;99928.06;4155702;85;28578;-92
2022/10/26 22:11:27;;;;;;;18.82;10.13;;;;;;;14.00;84.86;99929.00;4152425;85;28486;-90
2022/10/26 22:17:28;;;;;;;24.77;10.80;;;;;;;14.20;81.73;99934.08;4157191;85;28476;-90
2022/10/26 22:23:34;;;;;;;23.18;11.30;;;;;;;14.05;82.26;99940.48;4152862;83;28497;-91
2022/10/26 22:29:36;;;;;;;19.85;11.18;;;;;;;14.28;83.09;99933.45;4140149;85;28560;-91
2022/10/26 22:35:37;;;;;;;23.35;11.55;;;;;;;14.14;83.79;99943.66;4130041;83;28478;-90
2022/10/26 22:41:39;;;;;;;21.42;11.97;;;;;;;13.98;85.03;99949.21;4211216;83;28549;-91
2022/10/26 22:47:40;;;;;;;22.05;11.60;;;;;;;13.91;85.31;99942.05;4185972;85;28513;-92
2022/10/26 22:53:42;;;;;;;24.32;12.68;;;;;;;13.80;85.73;99946.89;4121528;86;28457;-92
2022/10/26 22:59:45;;;;;;;22.05;12.18;;;;;;;13.85;86.28;99943.47;4118063;86;28454;-92
2022/10/26 23:05:48;;;;;;;24.95;12.28;;;;;;;13.92;85.64;99946.39;4189953;84;28500;-91
2022/10/26 23:11:50;;;;;;;24.15;11.93;;;;;;;13.97;85.99;99948.91;4189272;83;28537;-91
2022/10/26 23:17:52;;;;;;;20.60;11.73;;;;;;;13.79;83.53;99950.11;4170444;83;28464;-91
2022/10/26 23:23:54;;;;;;;23.73;12.75;;;;;;;13.66;83.69;99959.22;4166208;85;28446;-92
2022/10/26 23:29:56;;;;;;;21.65;11.40;;;;;;;13.55;85.28;99955.94;4205164;84;28559;-91
2022/10/26 23:36:01;;;;;;;20.63;11.77;;;;;;;13.65;84.56;99964.33;4309646;82;28471;-87
2022/10/26 23:42:03;;;;;;;20.88;11.50;;;;;;;13.52;83.25;99952.35;4318692;82;28459;-87
2022/10/26 23:48:04;;;;;;;21.52;11.35;;;;;;;13.52;83.63;99963.16;4326959;82;28482;-86
2022/10/26 23:54:06;;;;;;;18.77;11.30;;;;;;;13.55;85.55;99974.85;4309953;82;28448;-87
